createdAt,value
2023-03-26T00:00:34.292Z,3.35
2023-03-26T00:03:05.321Z,3.42
2023-03-26T00:05:35.591Z,2.53
2023-03-26T00:08:09.009Z,2.58
2023-03-26T00:10:40.959Z,3.17
2023-03-26T00:13:11.615Z,2.80
2023-03-26T00:15:41.730Z,3.20
2023-03-26T00:18:11.878Z,2.38
2023-03-26T00:20:42.124Z,2.70
2023-03-26T00:23:12.261Z,2.45
2023-03-26T00:25:43.701Z,2.70
2023-03-26T00:28:13.906Z,2.33
2023-03-26T00:30:44.818Z,2.80
2023-03-26T00:33:21.978Z,2.20
2023-03-26T00:35:54.592Z,2.20
2023-03-26T00:38:26.376Z,3.13
2023-03-26T00:41:06.119Z,2.58
2023-03-26T00:43:36.817Z,2.20
2023-03-26T00:46:07.008Z,2.55
2023-03-26T00:51:17.560Z,1.83
2023-03-26T00:53:49.924Z,2.33
2023-03-26T00:56:20.140Z,2.83
2023-03-26T00:58:50.381Z,1.85
2023-03-26T01:01:29.150Z,2.70
2023-03-26T01:04:24.371Z,1.85
2023-03-26T01:06:55.806Z,2.35
2023-03-26T01:09:34.709Z,2.30
2023-03-26T01:12:08.802Z,2.05
2023-03-26T01:14:39.772Z,2.05
2023-03-26T01:17:12.844Z,2.20
2023-03-26T01:19:49.782Z,2.33
2023-03-26T01:22:27.640Z,2.65
2023-03-26T01:24:57.706Z,2.40
2023-03-26T01:27:41.919Z,2.53
2023-03-26T01:30:42.499Z,2.60
2023-03-26T01:33:30.435Z,2.33
2023-03-26T01:36:16.597Z,2.53
2023-03-26T01:38:52.265Z,2.88
2023-03-26T01:41:34.122Z,2.20
2023-03-26T01:44:11.272Z,2.55
2023-03-26T01:46:42.921Z,1.67
2023-03-26T01:49:13.685Z,4.35
2023-03-26T01:51:44.027Z,3.63
2023-03-26T01:54:19.181Z,2.97
2023-03-26T01:56:57.283Z,2.70
2023-03-26T01:59:36.111Z,2.55
2023-03-26T02:02:35.925Z,2.90
2023-03-26T02:05:16.146Z,2.80
2023-03-26T02:07:51.333Z,3.08
2023-03-26T02:10:28.320Z,2.33
2023-03-26T02:12:59.177Z,2.40
2023-03-26T02:15:29.320Z,2.17
2023-03-26T02:18:00.116Z,2.88
2023-03-26T02:20:30.502Z,2.20
2023-03-26T02:23:00.751Z,2.38
2023-03-26T02:25:30.928Z,2.50
2023-03-26T02:28:01.016Z,2.08
2023-03-26T02:30:33.802Z,2.28
2023-03-26T02:33:04.016Z,2.42
2023-03-26T02:35:34.372Z,2.33
2023-03-26T02:38:04.565Z,2.05
2023-03-26T02:40:34.698Z,1.73
2023-03-26T02:43:04.900Z,2.28
2023-03-26T02:45:35.126Z,1.90
2023-03-26T02:48:05.625Z,1.92
2023-03-26T02:50:37.013Z,2.00
2023-03-26T02:53:08.397Z,2.22
2023-03-26T02:55:38.639Z,2.40
2023-03-26T02:58:08.808Z,2.00
2023-03-26T03:00:39.255Z,2.13
2023-03-26T03:03:09.711Z,2.10
2023-03-26T03:05:43.388Z,1.98
2023-03-26T03:08:13.578Z,2.08
2023-03-26T03:10:43.758Z,1.50
2023-03-26T03:13:13.841Z,2.30
2023-03-26T03:15:44.310Z,2.10
2023-03-26T03:18:14.427Z,2.58
2023-03-26T03:20:44.964Z,2.42
2023-03-26T03:23:15.119Z,2.25
2023-03-26T03:25:45.453Z,2.60
2023-03-26T03:28:18.424Z,2.10
2023-03-26T03:30:49.092Z,2.30
2023-03-26T03:33:22.529Z,2.20
2023-03-26T03:35:53.089Z,2.03
2023-03-26T03:38:23.464Z,1.88
2023-03-26T03:40:55.578Z,2.28
2023-03-26T03:43:25.694Z,2.38
2023-03-26T03:45:56.260Z,1.88
2023-03-26T03:48:26.766Z,2.38
2023-03-26T03:50:57.435Z,2.40
2023-03-26T03:53:27.493Z,2.17
2023-03-26T03:55:58.339Z,2.30
2023-03-26T03:58:31.225Z,3.05
2023-03-26T04:01:03.189Z,4.35
2023-03-26T04:03:38.816Z,9.57
2023-03-26T04:06:11.232Z,10.50
2023-03-26T04:08:41.409Z,7.75
2023-03-26T04:11:11.824Z,5.68
2023-03-26T04:13:41.986Z,4.55
2023-03-26T04:16:12.200Z,2.60
2023-03-26T04:18:42.363Z,2.50
2023-03-26T04:21:15.952Z,2.47
2023-03-26T04:23:46.194Z,2.60
2023-03-26T04:26:20.014Z,2.30
2023-03-26T04:28:54.478Z,1.98
2023-03-26T04:31:29.610Z,2.22
2023-03-26T04:34:20.350Z,2.17
2023-03-26T04:36:54.619Z,2.80
2023-03-26T04:39:29.433Z,3.00
2023-03-26T04:42:00.702Z,3.00
2023-03-26T04:44:31.978Z,2.65
2023-03-26T04:47:02.221Z,3.22
2023-03-26T04:49:32.378Z,3.10
2023-03-26T04:52:02.578Z,2.55
2023-03-26T04:54:32.655Z,3.17
2023-03-26T04:57:13.058Z,2.95
2023-03-26T04:59:43.315Z,3.20
2023-03-26T05:02:14.195Z,2.30
2023-03-26T05:04:47.205Z,2.58
2023-03-26T05:07:20.819Z,2.47
2023-03-26T05:09:50.934Z,2.28
2023-03-26T05:12:21.742Z,2.00
2023-03-26T05:14:51.806Z,2.47
2023-03-26T05:17:24.562Z,2.40
2023-03-26T05:19:54.854Z,3.40
2023-03-26T05:22:24.939Z,2.95
2023-03-26T05:24:55.120Z,2.42
2023-03-26T05:27:25.182Z,3.78
2023-03-26T05:30:01.936Z,3.70
2023-03-26T05:32:32.550Z,2.13
2023-03-26T05:35:04.017Z,2.60
2023-03-26T05:37:34.167Z,1.90
2023-03-26T05:40:10.633Z,2.85
2023-03-26T05:42:41.546Z,2.40
2023-03-26T05:45:13.175Z,2.38
2023-03-26T05:47:43.564Z,2.72
2023-03-26T05:50:13.774Z,2.22
2023-03-26T05:52:44.798Z,2.30
2023-03-26T05:55:15.027Z,2.58
2023-03-26T05:57:45.206Z,2.20
2023-03-26T06:00:15.609Z,2.55
2023-03-26T06:02:47.044Z,2.60
2023-03-26T06:05:17.382Z,3.33
2023-03-26T06:07:47.645Z,2.20
2023-03-26T06:10:18.398Z,1.80
2023-03-26T06:12:49.905Z,3.58
2023-03-26T06:15:20.022Z,2.58
2023-03-26T06:17:55.161Z,2.28
2023-03-26T06:20:25.875Z,2.78
2023-03-26T06:22:56.061Z,2.53
2023-03-26T06:25:26.237Z,2.50
2023-03-26T06:27:56.422Z,2.92
2023-03-26T06:30:29.083Z,2.05
2023-03-26T06:32:59.209Z,2.88
2023-03-26T06:35:30.397Z,3.42
2023-03-26T06:38:00.903Z,3.33
2023-03-26T06:40:33.467Z,2.92
2023-03-26T06:43:08.050Z,2.60
2023-03-26T06:45:40.631Z,2.38
2023-03-26T06:48:10.908Z,2.22
2023-03-26T06:50:41.089Z,2.10
2023-03-26T06:53:11.714Z,1.73
2023-03-26T06:55:41.953Z,2.60
2023-03-26T06:58:15.120Z,2.30
2023-03-26T07:00:45.470Z,2.17
2023-03-26T07:03:17.410Z,1.73
2023-03-26T07:05:48.150Z,1.40
2023-03-26T07:08:18.355Z,1.58
2023-03-26T07:10:48.438Z,1.20
2023-03-26T07:13:18.536Z,1.05
2023-03-26T07:15:49.549Z,1.00
2023-03-26T07:18:19.670Z,0.70
2023-03-26T07:20:50.600Z,0.50
2023-03-26T07:23:21.460Z,0.70
2023-03-26T07:25:52.148Z,0.30
2023-03-26T07:29:04.498Z,0.50
2023-03-26T07:32:03.540Z,0.40
2023-03-26T07:34:58.363Z,0.40
2023-03-26T07:38:01.500Z,0.43
2023-03-26T07:40:40.574Z,0.70
2023-03-26T07:43:35.605Z,0.75
2023-03-26T07:46:08.818Z,0.68
2023-03-26T07:48:42.450Z,0.70
2023-03-26T07:51:13.271Z,0.82
2023-03-26T07:53:43.576Z,0.68
2023-03-26T07:56:19.425Z,0.70
2023-03-26T07:59:17.143Z,0.90
2023-03-26T08:01:59.631Z,1.17
2023-03-26T08:04:56.509Z,0.90
2023-03-26T08:07:42.767Z,0.90
2023-03-26T08:10:22.454Z,1.05
2023-03-26T08:13:04.197Z,0.85
2023-03-26T08:15:57.830Z,1.58
2023-03-26T08:18:55.114Z,1.30
2023-03-26T08:21:38.300Z,0.88
2023-03-26T08:24:20.519Z,1.17
2023-03-26T08:27:27.891Z,0.80
2023-03-26T08:30:08.581Z,1.05
2023-03-26T08:32:39.041Z,0.70
2023-03-26T08:35:13.793Z,0.80
2023-03-26T08:37:45.460Z,0.60
2023-03-26T08:40:32.204Z,0.50
2023-03-26T08:46:20.586Z,1.15
2023-03-26T08:49:20.225Z,1.00
2023-03-26T08:52:58.060Z,0.80
2023-03-26T08:55:56.703Z,0.85
2023-03-26T08:59:06.603Z,1.10
2023-03-26T09:02:20.203Z,1.10
2023-03-26T09:04:56.219Z,1.10
2023-03-26T09:07:54.359Z,0.90
2023-03-26T09:10:39.639Z,1.45
2023-03-26T09:13:21.780Z,2.10
2023-03-26T09:16:13.472Z,1.88
2023-03-26T09:19:21.828Z,2.33
2023-03-26T09:22:31.474Z,1.42
2023-03-26T09:25:45.877Z,1.60
2023-03-26T09:28:47.115Z,2.17
2023-03-26T09:31:59.622Z,1.88
2023-03-26T09:34:51.024Z,1.95
2023-03-26T09:37:57.453Z,1.85
2023-03-26T09:40:37.477Z,2.13
2023-03-26T09:43:26.261Z,1.65
2023-03-26T09:46:32.849Z,1.38
2023-03-26T09:49:46.971Z,1.02
2023-03-26T09:52:38.631Z,1.38
2023-03-26T09:55:24.536Z,1.30
2023-03-26T09:58:13.142Z,1.17
2023-03-26T10:00:53.320Z,2.30
2023-03-26T10:03:39.026Z,1.40
2023-03-26T10:06:20.463Z,1.42
2023-03-26T10:09:06.101Z,1.98
2023-03-26T10:12:07.475Z,1.98
2023-03-26T10:14:55.192Z,1.40
2023-03-26T10:17:34.259Z,1.70
2023-03-26T10:20:25.469Z,2.60
2023-03-26T10:23:03.977Z,1.00
2023-03-26T10:25:55.614Z,0.98
2023-03-26T10:28:44.341Z,0.90
2023-03-26T10:31:26.206Z,0.88
2023-03-26T10:34:28.686Z,0.98
2023-03-26T10:37:16.497Z,0.80
2023-03-26T10:40:24.087Z,0.70
2023-03-26T10:43:14.862Z,0.50
2023-03-26T10:45:57.285Z,0.70
2023-03-26T10:48:45.549Z,0.63
2023-03-26T10:51:35.246Z,0.82
2023-03-26T10:54:26.201Z,0.90
2023-03-26T10:57:00.834Z,0.90
2023-03-26T10:59:31.099Z,0.90
2023-03-26T11:02:29.395Z,1.00
2023-03-26T11:05:03.690Z,1.80
2023-03-26T11:07:57.948Z,0.77
2023-03-26T11:10:47.912Z,1.00
2023-03-26T11:13:42.303Z,0.70
2023-03-26T11:16:32.676Z,0.80
2023-03-26T11:19:11.076Z,1.08
2023-03-26T11:21:53.032Z,0.90
2023-03-26T11:24:54.144Z,0.57
2023-03-26T11:28:09.749Z,0.60
2023-03-26T11:31:08.734Z,1.25
2023-03-26T11:33:48.530Z,0.68
2023-03-26T11:36:33.651Z,1.08
2023-03-26T11:39:10.902Z,0.50
2023-03-26T11:41:41.026Z,0.82
2023-03-26T11:44:28.342Z,0.77
2023-03-26T11:47:04.684Z,1.00
2023-03-26T11:49:34.964Z,0.80
2023-03-26T11:52:11.031Z,0.75
2023-03-26T11:54:41.646Z,0.65
2023-03-26T11:57:21.365Z,0.93
2023-03-26T12:00:05.494Z,1.40
2023-03-26T12:02:41.921Z,1.00
2023-03-26T12:05:22.971Z,0.93
2023-03-26T12:07:58.567Z,0.80
2023-03-26T12:10:43.743Z,0.90
2023-03-26T12:13:26.652Z,0.68
2023-03-26T12:16:16.627Z,1.13
2023-03-26T12:18:57.793Z,1.20
2023-03-26T12:21:27.900Z,0.95
2023-03-26T12:24:02.620Z,1.10
2023-03-26T12:26:49.082Z,1.13
2023-03-26T12:32:13.671Z,1.38
2023-03-26T12:34:44.136Z,1.15
2023-03-26T12:37:37.807Z,1.63
2023-03-26T12:40:36.877Z,1.83
2023-03-26T12:44:55.788Z,2.63
2023-03-26T12:47:56.265Z,1.13
2023-03-26T12:49:24.591Z,1.48
2023-03-26T12:52:02.037Z,1.33
2023-03-26T12:55:00.502Z,1.33
2023-03-26T12:57:41.001Z,1.20
2023-03-26T13:00:24.331Z,1.17
2023-03-26T13:03:03.463Z,0.80
2023-03-26T13:05:58.572Z,0.80
2023-03-26T13:08:50.181Z,1.00
2023-03-26T13:11:34.950Z,0.77
2023-03-26T13:14:16.017Z,0.93
2023-03-26T13:17:19.950Z,0.70
2023-03-26T13:20:16.000Z,0.93
2023-03-26T13:23:04.090Z,0.60
2023-03-26T13:25:53.604Z,0.60
2023-03-26T13:28:42.334Z,0.70
2023-03-26T13:31:24.759Z,0.80
2023-03-26T13:34:19.678Z,0.80
2023-03-26T13:37:38.908Z,0.50
2023-03-26T13:40:15.050Z,0.70
2023-03-26T13:43:09.568Z,0.90
2023-03-26T13:46:14.626Z,1.02
2023-03-26T13:49:08.026Z,1.67
2023-03-26T13:51:47.143Z,1.60
2023-03-26T13:54:44.735Z,1.30
2023-03-26T13:57:33.634Z,1.13
2023-03-26T14:00:58.252Z,3.42
2023-03-26T14:04:06.208Z,1.88
2023-03-26T14:06:48.937Z,2.60
2023-03-26T14:09:34.727Z,2.08
2023-03-26T14:12:22.190Z,2.05
2023-03-26T14:15:04.367Z,3.53
2023-03-26T14:17:39.305Z,2.53
2023-03-26T14:20:40.803Z,5.50
2023-03-26T14:23:16.926Z,3.40
2023-03-26T14:26:05.535Z,3.08
2023-03-26T14:29:06.047Z,1.75
2023-03-26T14:31:58.539Z,2.03
2023-03-26T14:34:41.099Z,1.95
2023-03-26T14:37:31.866Z,1.55
2023-03-26T14:40:26.563Z,1.70
2023-03-26T14:43:21.556Z,1.90
2023-03-26T14:46:07.625Z,1.33
2023-03-26T14:48:56.642Z,1.67
2023-03-26T14:51:55.893Z,1.48
2023-03-26T14:54:33.839Z,1.40
2023-03-26T14:57:04.092Z,1.48
2023-03-26T15:00:15.433Z,1.17
2023-03-26T15:03:10.429Z,1.30
2023-03-26T15:06:22.998Z,1.08
2023-03-26T15:09:30.827Z,0.82
2023-03-26T15:12:16.369Z,1.00
2023-03-26T15:15:11.502Z,1.27
2023-03-26T15:18:00.321Z,1.45
2023-03-26T15:20:48.953Z,1.63
2023-03-26T15:23:37.342Z,7.72
2023-03-26T15:26:11.301Z,5.47
2023-03-26T15:29:01.239Z,4.85
2023-03-26T15:32:02.288Z,5.25
2023-03-26T15:35:04.289Z,2.70
2023-03-26T15:38:05.196Z,2.20
2023-03-26T15:40:50.369Z,1.15
2023-03-26T15:43:52.164Z,1.90
2023-03-26T15:46:49.025Z,1.63
2023-03-26T15:49:36.320Z,2.47
2023-03-26T15:52:29.787Z,2.08
2023-03-26T15:55:27.888Z,2.10
2023-03-26T15:58:09.949Z,1.90
2023-03-26T16:00:57.181Z,2.58
2023-03-26T16:03:36.056Z,2.90
2023-03-26T16:06:28.102Z,3.40
2023-03-26T16:09:23.874Z,2.67
2023-03-26T16:11:59.896Z,4.10
2023-03-26T16:14:36.217Z,3.15
2023-03-26T16:17:12.058Z,2.20
2023-03-26T16:20:14.018Z,2.17
2023-03-26T16:22:53.693Z,2.50
2023-03-26T16:25:31.377Z,2.25
2023-03-26T16:28:10.712Z,2.92
2023-03-26T16:30:42.297Z,3.42
2023-03-26T16:33:19.022Z,4.93
2023-03-26T16:39:10.554Z,2.97
2023-03-26T16:41:45.357Z,2.30
2023-03-26T16:44:38.887Z,3.45
2023-03-26T16:47:29.792Z,1.95
2023-03-26T16:50:08.382Z,1.40
2023-03-26T16:52:45.540Z,1.90
2023-03-26T16:55:31.210Z,2.33
2023-03-26T16:58:40.449Z,3.13
2023-03-26T17:01:30.505Z,3.67
2023-03-26T17:04:04.982Z,3.42
2023-03-26T17:07:09.266Z,6.00
2023-03-26T17:09:46.663Z,8.48
2023-03-26T17:12:20.365Z,14.38
2023-03-26T17:15:06.140Z,16.25
2023-03-26T17:17:45.543Z,11.30
2023-03-26T17:20:36.014Z,5.50
2023-03-26T17:23:41.567Z,4.20
2023-03-26T17:26:17.002Z,4.05
2023-03-26T17:29:01.621Z,4.10
2023-03-26T17:31:37.885Z,4.03
2023-03-26T17:34:39.439Z,3.67
2023-03-26T17:37:26.577Z,3.35
2023-03-26T17:40:08.936Z,2.22
2023-03-26T17:42:39.155Z,2.17
2023-03-26T17:45:15.767Z,2.13
2023-03-26T17:47:51.475Z,2.85
2023-03-26T17:50:33.828Z,1.92
2023-03-26T17:53:13.638Z,1.80
2023-03-26T17:55:46.331Z,2.50
2023-03-26T17:58:35.637Z,1.80
2023-03-26T18:01:33.608Z,1.98
2023-03-26T18:04:08.511Z,1.45
2023-03-26T18:06:57.385Z,1.55
2023-03-26T18:09:45.271Z,2.40
2023-03-26T18:12:15.939Z,1.33
2023-03-26T18:14:58.413Z,2.78
2023-03-26T18:17:38.718Z,2.60
2023-03-26T18:20:23.476Z,2.03
2023-03-26T18:22:54.715Z,1.63
2023-03-26T18:25:29.555Z,1.77
2023-03-26T18:28:02.264Z,2.00
2023-03-26T18:30:32.518Z,2.25
2023-03-26T18:33:12.198Z,1.85
2023-03-26T18:35:45.338Z,2.17
2023-03-26T18:38:35.561Z,2.03
2023-03-26T18:41:20.170Z,2.15
2023-03-26T18:43:50.390Z,2.90
2023-03-26T18:46:23.921Z,3.03
2023-03-26T18:48:55.858Z,2.63
2023-03-26T18:51:27.530Z,1.73
2023-03-26T18:54:03.321Z,1.63
2023-03-26T18:56:37.265Z,1.58
2023-03-26T18:59:32.420Z,1.80
2023-03-26T19:02:13.653Z,1.40
2023-03-26T19:04:47.134Z,1.52
2023-03-26T19:07:22.698Z,1.25
2023-03-26T19:09:56.552Z,1.55
2023-03-26T19:12:33.019Z,1.73
2023-03-26T19:15:07.997Z,1.40
2023-03-26T19:17:51.702Z,1.33
2023-03-26T19:20:26.304Z,1.95
2023-03-26T19:22:57.511Z,2.10
2023-03-26T19:25:39.036Z,2.25
2023-03-26T19:28:33.915Z,2.15
2023-03-26T19:31:19.528Z,2.00
2023-03-26T19:34:26.211Z,1.70
2023-03-26T19:37:01.120Z,2.95
2023-03-26T19:39:43.090Z,1.77
2023-03-26T19:42:22.240Z,1.77
2023-03-26T19:44:53.453Z,1.90
2023-03-26T19:47:48.446Z,2.08
2023-03-26T19:50:29.212Z,1.92
2023-03-26T19:53:32.639Z,1.75
2023-03-26T19:56:08.498Z,2.30
2023-03-26T19:58:42.037Z,1.88
2023-03-26T20:01:18.030Z,1.75
2023-03-26T20:03:51.764Z,2.03
2023-03-26T20:06:34.139Z,1.63
2023-03-26T20:09:13.304Z,1.05
2023-03-26T20:11:44.498Z,2.35
2023-03-26T20:14:17.098Z,1.52
2023-03-26T20:16:47.348Z,2.70
2023-03-26T20:19:18.071Z,4.13
2023-03-26T20:21:49.087Z,3.60
2023-03-26T20:24:19.693Z,3.17
2023-03-26T20:26:50.089Z,3.17
2023-03-26T20:29:20.413Z,3.30
2023-03-26T20:31:50.669Z,2.33
2023-03-26T20:34:23.760Z,2.47
2023-03-26T20:37:01.227Z,2.63
2023-03-26T20:39:31.712Z,3.35
2023-03-26T20:42:01.916Z,2.03
2023-03-26T20:44:32.101Z,2.67
2023-03-26T20:47:02.344Z,2.00
2023-03-26T20:49:32.831Z,2.03
2023-03-26T20:52:03.067Z,2.22
2023-03-26T20:54:33.304Z,2.15
2023-03-26T20:57:03.623Z,2.80
2023-03-26T20:59:34.922Z,5.60
2023-03-26T21:02:05.315Z,5.07
2023-03-26T21:04:35.473Z,10.77
2023-03-26T21:07:17.815Z,14.00
2023-03-26T21:09:48.954Z,8.05
2023-03-26T21:12:33.616Z,9.50
2023-03-26T21:15:10.225Z,6.53
2023-03-26T21:17:44.165Z,6.18
2023-03-26T21:20:16.879Z,7.85
2023-03-26T21:23:08.889Z,7.93
2023-03-26T21:25:54.123Z,10.35
2023-03-26T21:28:41.924Z,9.10
2023-03-26T21:31:24.369Z,4.82
2023-03-26T21:33:55.526Z,4.20
2023-03-26T21:36:26.358Z,3.38
2023-03-26T21:38:57.217Z,3.83
2023-03-26T21:41:41.499Z,7.80
2023-03-26T21:44:12.366Z,11.20
2023-03-26T21:46:44.435Z,13.80
2023-03-26T21:49:18.008Z,9.35
2023-03-26T21:51:49.500Z,12.13
2023-03-26T21:54:33.402Z,8.23
2023-03-26T21:57:03.616Z,8.25
2023-03-26T21:59:41.865Z,6.15
2023-03-26T22:02:33.620Z,3.97
2023-03-26T22:05:13.300Z,4.70
2023-03-26T22:07:49.084Z,3.40
2023-03-26T22:10:19.286Z,2.58
2023-03-26T22:12:49.907Z,3.72
2023-03-26T22:15:20.598Z,3.75
2023-03-26T22:17:54.373Z,5.43
2023-03-26T22:20:25.407Z,6.60
2023-03-26T22:22:56.114Z,6.28
2023-03-26T22:25:26.532Z,8.23
2023-03-26T22:27:57.726Z,6.20
2023-03-26T22:30:27.979Z,7.63
2023-03-26T22:32:59.204Z,6.72
2023-03-26T22:35:29.952Z,6.20
2023-03-26T22:38:01.284Z,5.90
2023-03-26T22:40:31.601Z,6.15
2023-03-26T22:43:01.824Z,6.53
2023-03-26T22:45:32.721Z,5.55
2023-03-26T22:48:04.620Z,6.18
2023-03-26T22:50:35.095Z,7.43
2023-03-26T22:53:05.186Z,6.93
2023-03-26T22:55:35.383Z,6.80
2023-03-26T22:58:05.398Z,8.18
2023-03-26T23:00:36.347Z,8.93
2023-03-26T23:03:13.937Z,6.70
2023-03-26T23:05:44.248Z,5.90
2023-03-26T23:08:15.578Z,5.93
2023-03-26T23:11:02.946Z,8.52
2023-03-26T23:13:36.385Z,7.47
2023-03-26T23:16:12.781Z,7.53
2023-03-26T23:18:43.899Z,7.10
2023-03-26T23:21:24.815Z,6.63
2023-03-26T23:23:54.919Z,7.88
2023-03-26T23:26:25.009Z,10.65
2023-03-26T23:28:55.604Z,7.95
2023-03-26T23:31:27.691Z,8.77
2023-03-26T23:33:58.402Z,7.75
2023-03-26T23:36:28.948Z,8.60
2023-03-26T23:38:59.572Z,10.55
2023-03-26T23:41:29.690Z,8.80
2023-03-26T23:43:59.793Z,8.07
2023-03-26T23:46:36.027Z,8.73
2023-03-26T23:49:06.610Z,7.73
2023-03-26T23:51:37.213Z,6.40
2023-03-26T23:54:07.834Z,5.63
2023-03-26T23:56:38.222Z,7.22
2023-03-26T23:59:08.639Z,7.07
